Text Box: All records at near 07:00 local time
Kleivo 1 weather for Aug 2010
Month no. 45
Obs.
Da.
Temp. Dew Point Precip. Wind
Speed
Wind gusts Cloud cover Press. Humidity Wind dir. Sunny OPT
01.08.2010 11,8 10,1 10,7 9,3 9,3 8 987,0 89,0 157,5   72,5 %
02.08.2010 11,8 9,7 0,0 0,0 0,0 8 994,1 87,0 337,5   85,0 %
03.08.2010 11,3 9,4 0,0 0,0 0,0 8 992,8 88,0 0,0   85,0 %
04.08.2010 12,8 9,4 0,0 0,0 0,0 8 986,0 80,0 135,0   87,5 %
05.08.2010 10,9 9,2 0,0 3,7 3,7 1 985,0 89,0 22,5   65,0 %
06.08.2010 13,3 11,3 7,9 4,3 4,3 8 988,7 88,0 180,0   80,0 %
07.08.2010 13,3 11,3 0,0 4,3 4,3 8 988,7 88,0 180,0   85,0 %
08.08.2010 14,7 9,9 0,5 11,1 11,1 8 996,2 73,0 135,0   80,0 %
09.08.2010 14,4 11,9 0,0 3,7 3,7 8 996,2 85,0 157,5   85,0 %
10.08.2010 12,9 10,1 0,0 1,9 2,6 8 990,1 83,0 180,0   87,5 %
11.08.2010 12,3 10,6 2,0 1,9 1,9 8 985,7 89,0 112,5   85,0 %
12.08.2010 13,2 12,6 0,0 1,6 3,2 4 1012,1 96,0 22,5   77,5 %
13.08.2010 13,9 13,1 0,0 0,0 0,0 4 1014,4 95,0 0,0   77,5 %
14.08.2010 15,7 13,7 0,0 0,0 0,0 4 1019,5 88,0 22,5   80,0 %
15.08.2010 14,1 12,8 0,0 0,0 0,0 1 1020,5 92,0 292,5   70,0 %
16.08.2010 17,6 15,0 0,0 1,6 3,2 4 1016,1 85,0 67,5   82,5 %
17.08.2010 17,4 16,6 0,0 0,0 0,0 1 1007,3 95,0 180,0   72,5 %
18.08.2010 17,9 16,3 0,0 0,0 0,0 1 996,2 90,0 90,0   75,0 %
19.08.2010 19,4 13,6 0,0 14,5 22,5 1 997,2 69,0 22,5   67,5 %
20.08.2010 14,4 12,4 0,0 1,6 1,6 1 1010,4 88,0 337,5   70,0 %
21.08.2010 16,7 12,4 5,1 4,8 1,6 4 1005,3 90,0 202,5   75,0 %
22.08.2010 14,4 12,4 0,0 1,6 1,6 1 1010,4 88,0 337,5   70,0 %
23.08.2010 11,7 10,4 0,0 0,0 0,0 9 1003,3 92,0 270,0   87,5 %
24.08.2010 11,8 10,7 0,0 0,0 0,0 9 984,0 93,0 337,5   87,5 %
25.08.2010 14,2 13,2 0,0 3,2 3,2 9 990,7 94,0 270,0   90,0 %
26.08.2010 12,1 11,3 0,0 0,0 0,0 9 1003,9 95,0 180,0   87,5 %
27.08.2010 11,3 10,6 0,0 0,0 0,0 9 1004,3 95,0 0,0   87,5 %
28.08.2010 11,3 10,6 0,0 0,0 0,0 9 1004,3 95,0 0,0   87,5 %
29.08.2010 11,3 10,6 0,0 0,0 0,0 9 1004,3 95,0 0,0   87,5 %
30.08.2010 10,1 8,4 0,0 8,0 8,0 4 1015,8 89,0 0,0   70,0 %
31.08.2010 11,3 9,9 0,0 0,0 0,0 4 1016,8 91,0 337,5   75,0 %
Avrg/Sum 13,5 11,6 26,2 2,5 2,8 5,7 1000,9 88,8 147,3   79,8 %